< < Back
Terminal Aerodrome Forecast


Current Version              Previous Versions:   1  2  3  4  5  6  7  8  9  

Terminal Aerodrome Forecast

842
FTUS44 KBMX 272340
TAFBHM
TAF
KBHM 272340Z 2800/2824 34011KT 6SM -RA BKN035
     FM280200 04004KT P6SM BKN150
     FM281500 02010KT P6SM BKN150=

Latest METAR

994
SAUS70 KWBC 280900 RRJ
MTRBHM
METAR KBHM 280853Z 00000KT 10SM BKN008 23/22 A3003 RMK AO2 SLP160
T02280217 56008


USA.gov is the U.S. government's official web portal to all federal, state and local government web resources and services.